createdAt,value
2018-06-23T00:00:35.081Z,13.8
2018-06-23T00:01:54.924Z,13.8
2018-06-23T00:03:17.323Z,13.8
2018-06-23T00:04:37.177Z,13.7
2018-06-23T00:05:57.009Z,13.8
2018-06-23T00:07:16.873Z,13.8
2018-06-23T00:08:36.701Z,13.7
2018-06-23T00:10:06.674Z,13.6
2018-06-23T00:11:26.508Z,13.6
2018-06-23T00:12:48.863Z,13.7
2018-06-23T00:14:11.284Z,13.7
2018-06-23T00:15:46.275Z,13.7
2018-06-23T00:17:06.161Z,13.7
2018-06-23T00:18:28.562Z,13.8
2018-06-23T00:19:55.999Z,13.8
2018-06-23T00:21:15.858Z,13.7
2018-06-23T00:22:35.708Z,13.7
2018-06-23T00:23:55.604Z,13.7
2018-06-23T00:25:17.996Z,13.7
2018-06-23T00:26:37.831Z,13.7
2018-06-23T00:27:57.678Z,13.7
2018-06-23T00:29:22.571Z,13.7
2018-06-23T00:30:47.491Z,13.6
2018-06-23T00:32:07.321Z,13.6
2018-06-23T00:33:27.148Z,13.6
2018-06-23T00:34:52.061Z,13.6
2018-06-23T00:36:11.889Z,13.5
2018-06-23T00:37:34.281Z,13.5
2018-06-23T00:38:54.107Z,13.6
2018-06-23T00:40:21.556Z,13.6
2018-06-23T00:41:41.394Z,13.6
2018-06-23T00:43:01.276Z,13.6
2018-06-23T00:44:26.156Z,13.6
2018-06-23T00:45:45.990Z,13.6
2018-06-23T00:47:08.382Z,13.5
2018-06-23T00:48:28.238Z,13.5
2018-06-23T00:49:50.618Z,13.5
2018-06-23T00:51:13.028Z,13.6
2018-06-23T00:52:35.436Z,13.5
2018-06-23T00:53:57.892Z,13.6
2018-06-23T00:55:17.723Z,13.6
2018-06-23T00:56:37.540Z,13.5
2018-06-23T00:58:02.483Z,13.5
2018-06-23T00:59:45.111Z,13.5
2018-06-23T01:01:10.024Z,13.5
2018-06-23T01:02:29.873Z,13.5
2018-06-23T01:03:49.751Z,13.5
2018-06-23T01:05:09.636Z,13.5
2018-06-23T01:06:37.048Z,13.5
2018-06-23T01:07:56.874Z,13.5
2018-06-23T01:09:19.255Z,13.5
2018-06-23T01:10:39.079Z,13.5
2018-06-23T01:11:58.958Z,13.5
2018-06-23T01:13:21.310Z,13.6
2018-06-23T01:14:46.213Z,13.5
2018-06-23T01:16:06.042Z,13.5
2018-06-23T01:17:25.870Z,13.5
2018-06-23T01:18:50.778Z,13.6
2018-06-23T01:20:13.138Z,13.6
2018-06-23T01:21:32.972Z,13.6
2018-06-23T01:23:02.963Z,13.6
2018-06-23T01:24:22.837Z,13.6
2018-06-23T01:25:42.687Z,13.6
2018-06-23T01:27:07.570Z,13.5
2018-06-23T01:28:37.517Z,13.6
2018-06-23T01:30:10.034Z,13.6
2018-06-23T01:31:29.945Z,13.6
2018-06-23T01:32:49.795Z,13.6
2018-06-23T01:34:09.624Z,13.6
2018-06-23T01:35:29.507Z,13.7
2018-06-23T01:36:51.877Z,13.6
2018-06-23T01:38:14.237Z,13.6
2018-06-23T01:39:34.066Z,13.6
2018-06-23T01:40:53.896Z,13.6
2018-06-23T01:42:16.271Z,13.7
2018-06-23T01:43:36.104Z,13.7
2018-06-23T01:44:55.933Z,13.7
2018-06-23T01:46:15.806Z,13.7
2018-06-23T01:47:35.666Z,13.6
2018-06-23T01:48:55.514Z,13.7
2018-06-23T01:50:15.433Z,13.7
2018-06-23T01:51:35.331Z,13.7
2018-06-23T01:52:55.189Z,13.6
2018-06-23T01:54:15.039Z,13.7
2018-06-23T01:55:34.913Z,13.7
2018-06-23T01:56:59.819Z,13.7
2018-06-23T01:58:22.181Z,13.7
2018-06-23T01:59:44.549Z,13.7
2018-06-23T02:01:09.455Z,13.7
2018-06-23T02:02:41.989Z,13.7
2018-06-23T02:04:01.813Z,13.8
2018-06-23T02:05:24.227Z,13.8
2018-06-23T02:06:44.091Z,13.7
2018-06-23T02:08:03.944Z,13.7
2018-06-23T02:09:41.521Z,13.8
2018-06-23T02:11:03.881Z,13.7
2018-06-23T02:12:26.233Z,13.8
2018-06-23T02:13:46.063Z,13.8
2018-06-23T02:15:05.890Z,13.8
2018-06-23T02:16:25.752Z,13.7
2018-06-23T02:17:58.283Z,13.7
2018-06-23T02:19:18.164Z,13.7
2018-06-23T02:20:37.996Z,13.7
2018-06-23T02:22:05.500Z,13.7
2018-06-23T02:23:25.357Z,13.7
2018-06-23T02:24:45.207Z,13.7
2018-06-23T02:26:07.593Z,13.7
2018-06-23T02:27:35.040Z,13.8
2018-06-23T02:28:54.900Z,13.7
2018-06-23T02:30:14.757Z,13.7
2018-06-23T02:31:34.610Z,13.6
2018-06-23T02:32:54.477Z,13.6
2018-06-23T02:34:24.457Z,13.7
2018-06-23T02:35:44.287Z,13.7
2018-06-23T02:37:04.168Z,13.6
2018-06-23T02:38:34.119Z,13.6
2018-06-23T02:39:53.944Z,13.6
2018-06-23T02:41:16.338Z,13.6
2018-06-23T02:42:38.719Z,13.4
2018-06-23T02:44:08.670Z,13.6
2018-06-23T02:45:31.029Z,13.5
2018-06-23T02:46:50.863Z,13.5
2018-06-23T02:48:10.704Z,13.6
2018-06-23T02:49:35.591Z,13.6
2018-06-23T02:50:58.005Z,13.7
2018-06-23T02:52:17.853Z,13.7
2018-06-23T02:53:37.683Z,13.6
2018-06-23T02:54:57.518Z,13.5
2018-06-23T02:56:22.407Z,13.6
2018-06-23T02:57:52.368Z,13.7
2018-06-23T02:59:17.296Z,13.6
2018-06-23T03:00:37.125Z,13.5
2018-06-23T03:01:56.954Z,13.5
2018-06-23T03:03:16.823Z,13.5
2018-06-23T03:04:44.304Z,13.5
2018-06-23T03:06:04.160Z,13.5
2018-06-23T03:07:24.045Z,13.6
2018-06-23T03:08:48.946Z,13.5
2018-06-23T03:10:11.310Z,13.5
2018-06-23T03:11:31.140Z,13.5
2018-06-23T03:12:56.082Z,13.4
2018-06-23T03:14:31.138Z,13.5
2018-06-23T03:15:51.000Z,13.7
2018-06-23T03:17:18.415Z,13.5
2018-06-23T03:18:38.258Z,13.3
2018-06-23T03:20:05.680Z,13.5
2018-06-23T03:21:28.040Z,13.4
2018-06-23T03:22:47.886Z,13.3
2018-06-23T03:24:07.706Z,13.4
2018-06-23T03:25:30.084Z,13.5
2018-06-23T03:26:49.970Z,13.5
2018-06-23T03:28:09.824Z,13.6
2018-06-23T03:29:37.230Z,13.3
2018-06-23T03:30:59.609Z,13.4
2018-06-23T03:32:19.491Z,13.5
2018-06-23T03:33:39.342Z,13.3
2018-06-23T03:34:59.168Z,13.5
2018-06-23T03:36:21.560Z,13.3
2018-06-23T03:37:41.408Z,13.5
2018-06-23T03:39:01.246Z,13.4
2018-06-23T03:40:23.600Z,13.3
2018-06-23T03:41:43.481Z,13.4
2018-06-23T03:43:05.861Z,13.3
2018-06-23T03:44:30.751Z,13.4
2018-06-23T03:45:50.580Z,13.3
2018-06-23T03:47:10.406Z,13.4
2018-06-23T03:48:35.340Z,13.4
2018-06-23T03:49:57.698Z,13.3
2018-06-23T03:51:17.558Z,13.3
2018-06-23T03:52:37.380Z,13.4
2018-06-23T03:53:59.753Z,13.3
2018-06-23T03:55:24.707Z,13.4
2018-06-23T03:56:44.568Z,13.2
2018-06-23T03:58:14.575Z,13.3
2018-06-23T03:59:34.427Z,13.3
2018-06-23T04:01:01.845Z,13.3
2018-06-23T04:02:21.677Z,13.4
2018-06-23T04:03:41.498Z,13.4
2018-06-23T04:05:01.373Z,13.4
2018-06-23T04:06:21.204Z,13.3
2018-06-23T04:07:43.555Z,13.3
2018-06-23T04:09:03.380Z,13.2
2018-06-23T04:10:25.729Z,13.1
2018-06-23T04:11:45.559Z,13.1
2018-06-23T04:13:05.393Z,13.1
2018-06-23T04:14:30.338Z,13.3
2018-06-23T04:15:52.745Z,13.2
2018-06-23T04:17:20.185Z,13.3
2018-06-23T04:18:42.551Z,13.2
2018-06-23T04:20:02.382Z,13.4
2018-06-23T04:21:27.285Z,13.4
2018-06-23T04:22:47.116Z,13.3
2018-06-23T04:24:06.939Z,13.3
2018-06-23T04:25:31.865Z,13.2
2018-06-23T04:26:51.715Z,13.3
2018-06-23T04:28:11.548Z,13.3
2018-06-23T04:29:33.957Z,13.3
2018-06-23T04:30:53.810Z,13.4
2018-06-23T04:32:21.273Z,13.3
2018-06-23T04:33:43.634Z,13.4
2018-06-23T04:35:03.457Z,13.3
2018-06-23T04:36:23.340Z,13.3
2018-06-23T04:37:48.232Z,13.4
2018-06-23T04:39:08.057Z,13.4
2018-06-23T04:40:27.877Z,13.3
2018-06-23T04:41:47.764Z,13.4
2018-06-23T04:43:15.226Z,13.4
2018-06-23T04:44:40.156Z,13.3
2018-06-23T04:46:00.024Z,13.5
2018-06-23T04:47:22.431Z,13.6
2018-06-23T04:48:47.322Z,13.4
2018-06-23T04:50:07.143Z,13.5
2018-06-23T04:51:34.642Z,13.5
2018-06-23T04:52:54.500Z,13.5
2018-06-23T04:54:19.413Z,13.4
2018-06-23T04:55:39.301Z,13.4
2018-06-23T04:57:06.766Z,13.5
2018-06-23T04:58:26.629Z,13.5
2018-06-23T04:59:46.458Z,13.5
2018-06-23T05:01:11.333Z,13.6
2018-06-23T05:02:36.287Z,13.5
2018-06-23T05:03:58.699Z,13.5
2018-06-23T05:05:18.578Z,13.4
2018-06-23T05:07:01.189Z,13.5
2018-06-23T05:08:21.023Z,13.6
2018-06-23T05:09:40.851Z,13.6
2018-06-23T05:11:03.220Z,13.7
2018-06-23T05:12:23.077Z,13.6
2018-06-23T05:13:45.442Z,13.6
2018-06-23T05:15:07.808Z,13.6
2018-06-23T05:16:27.672Z,13.6
2018-06-23T05:17:50.066Z,13.5
2018-06-23T05:19:09.888Z,13.4
2018-06-23T05:20:29.744Z,13.5
2018-06-23T05:21:49.602Z,13.3
2018-06-23T05:23:14.557Z,13.4
2018-06-23T05:24:39.465Z,13.5
2018-06-23T05:26:01.959Z,13.5
2018-06-23T05:27:24.410Z,13.7
2018-06-23T05:28:44.300Z,13.7
2018-06-23T05:30:04.206Z,13.7
2018-06-23T05:31:24.121Z,13.5
2018-06-23T05:32:49.062Z,13.7
2018-06-23T05:34:13.988Z,13.7
2018-06-23T05:35:38.898Z,13.8
2018-06-23T05:36:58.760Z,13.6
2018-06-23T05:38:23.691Z,13.7
2018-06-23T05:39:46.107Z,13.7
2018-06-23T05:41:05.939Z,13.7
2018-06-23T05:42:33.349Z,13.7
2018-06-23T05:43:53.180Z,14.1
2018-06-23T05:45:13.012Z,14.1
2018-06-23T05:46:37.926Z,14
2018-06-23T05:47:57.758Z,14.1
2018-06-23T05:49:17.640Z,14.1
2018-06-23T05:50:37.477Z,14
2018-06-23T05:51:57.305Z,14.1
2018-06-23T05:53:24.777Z,14.1
2018-06-23T05:54:49.682Z,14.2
2018-06-23T05:56:17.125Z,14.1
2018-06-23T05:57:39.512Z,14.2
2018-06-23T05:58:59.377Z,14.1
2018-06-23T06:00:19.259Z,14.2
2018-06-23T06:01:44.224Z,14.2
2018-06-23T06:03:04.091Z,14.1
2018-06-23T06:04:31.528Z,14.1
2018-06-23T06:05:53.909Z,14.3
2018-06-23T06:07:18.876Z,14.3
2018-06-23T06:08:41.279Z,14.3
2018-06-23T06:10:01.117Z,14.3
2018-06-23T06:11:23.541Z,14.3
2018-06-23T06:12:43.390Z,14.2
2018-06-23T06:14:03.273Z,14.2
2018-06-23T06:15:28.152Z,14.3
2018-06-23T06:16:55.600Z,14.4
2018-06-23T06:18:15.425Z,14.5
2018-06-23T06:19:42.863Z,14.3
2018-06-23T06:21:02.692Z,14.4
2018-06-23T06:22:25.074Z,14.3
2018-06-23T06:23:45.008Z,14.2
2018-06-23T06:25:04.845Z,14.2
2018-06-23T06:26:29.755Z,14.2
2018-06-23T06:27:52.120Z,14.5
2018-06-23T06:29:11.951Z,14.5
2018-06-23T06:30:31.773Z,14.6
2018-06-23T06:31:51.601Z,14.6
2018-06-23T06:33:11.480Z,14.6
2018-06-23T06:34:33.876Z,14.6
2018-06-23T06:35:53.726Z,14.7
2018-06-23T06:37:16.089Z,14.6
2018-06-23T06:38:43.524Z,14.7
2018-06-23T06:40:03.352Z,14.7
2018-06-23T06:41:28.298Z,14.6
2018-06-23T06:42:50.674Z,14.6
2018-06-23T06:44:13.032Z,14.6
2018-06-23T06:45:32.930Z,14.6
2018-06-23T06:46:52.811Z,14.5
2018-06-23T06:48:12.642Z,14.4
2018-06-23T06:49:50.190Z,14.4
2018-06-23T06:51:10.019Z,14.3
2018-06-23T06:52:39.982Z,14.4
2018-06-23T06:53:59.809Z,14.5
2018-06-23T06:55:19.666Z,14.5
2018-06-23T06:56:49.618Z,14.4
2018-06-23T06:58:22.109Z,14.4
2018-06-23T06:59:49.571Z,14.4
2018-06-23T07:01:11.927Z,14.4
2018-06-23T07:02:31.761Z,14.3
2018-06-23T07:03:54.178Z,14.5
2018-06-23T07:05:16.597Z,14.5
2018-06-23T07:06:46.537Z,14.9
2018-06-23T07:08:06.355Z,14.7
2018-06-23T07:09:26.186Z,14.6
2018-06-23T07:10:48.623Z,14.7
2018-06-23T07:12:10.978Z,14.6
2018-06-23T07:13:30.812Z,14.7
2018-06-23T07:14:53.237Z,14.6
2018-06-23T07:16:13.104Z,14.6
2018-06-23T07:17:38.004Z,14.6
2018-06-23T07:18:57.926Z,14.7
2018-06-23T07:20:17.806Z,14.7
2018-06-23T07:21:37.642Z,14.7
2018-06-23T07:22:57.517Z,14.7
2018-06-23T07:24:22.409Z,14.8
2018-06-23T07:25:42.236Z,14.7
2018-06-23T07:27:02.065Z,14.8
2018-06-23T07:28:21.917Z,14.7
2018-06-23T07:29:41.791Z,14.8
2018-06-23T07:31:09.249Z,14.7
2018-06-23T07:32:29.137Z,14.8
2018-06-23T07:33:51.543Z,14.8
2018-06-23T07:35:11.537Z,14.7
2018-06-23T07:36:33.965Z,14.7
2018-06-23T07:37:56.347Z,14.8
2018-06-23T07:39:31.360Z,14.8
2018-06-23T07:40:51.181Z,14.8
2018-06-23T07:42:11.010Z,14.8
2018-06-23T07:43:38.514Z,14.8
2018-06-23T07:45:03.497Z,14.9
2018-06-23T07:46:28.461Z,14.9
2018-06-23T07:47:48.330Z,14.9
2018-06-23T07:49:08.168Z,15.2
2018-06-23T07:50:30.539Z,15.1
2018-06-23T07:51:50.367Z,14.9
2018-06-23T07:53:12.756Z,14.8
2018-06-23T07:54:32.592Z,14.7
2018-06-23T07:55:54.993Z,14.6
2018-06-23T07:57:14.847Z,14.6
2018-06-23T07:58:34.676Z,14.7
2018-06-23T08:00:09.676Z,14.7
2018-06-23T08:01:29.530Z,14.6
2018-06-23T08:03:12.152Z,14.5
2018-06-23T08:04:31.981Z,12.9
2018-06-23T08:05:54.333Z,12.6
2018-06-23T08:07:24.293Z,13.8
2018-06-23T08:08:46.666Z,13.9
2018-06-23T08:10:09.052Z,13.9
2018-06-23T08:11:39.088Z,13.9
2018-06-23T08:13:01.453Z,13.8
2018-06-23T08:14:21.276Z,13.6
2018-06-23T08:15:41.101Z,14
2018-06-23T08:17:08.604Z,14
2018-06-23T08:18:43.653Z,14.1
2018-06-23T08:20:03.508Z,14
2018-06-23T08:21:23.379Z,13.9
2018-06-23T08:22:58.409Z,13.9
2018-06-23T08:24:18.305Z,14
2018-06-23T08:25:38.215Z,14
2018-06-23T08:26:58.150Z,13
2018-06-23T08:28:20.500Z,13.2
2018-06-23T08:29:40.333Z,13.6
2018-06-23T08:31:00.158Z,13.9
2018-06-23T08:32:30.098Z,14
2018-06-23T08:33:49.969Z,13.8
2018-06-23T08:35:09.803Z,13.8
2018-06-23T08:36:29.686Z,13.9
2018-06-23T08:37:49.558Z,13.8
2018-06-23T08:39:09.403Z,13.9
2018-06-23T08:40:29.246Z,13.2
2018-06-23T08:41:49.073Z,13.2
2018-06-23T08:43:13.976Z,13
2018-06-23T08:44:41.403Z,13.2
2018-06-23T08:46:08.866Z,12.9
2018-06-23T08:47:38.851Z,13.1
2018-06-23T08:48:58.758Z,13.1
2018-06-23T08:50:18.645Z,13.3
2018-06-23T08:51:41.057Z,13.3
2018-06-23T08:53:00.903Z,12.5
2018-06-23T08:54:23.304Z,12.3
2018-06-23T08:55:45.711Z,12.5
2018-06-23T08:57:05.538Z,12.3
2018-06-23T08:58:27.905Z,12.6
2018-06-23T08:59:47.733Z,12.4
2018-06-23T09:01:07.570Z,13.4
2018-06-23T09:02:27.414Z,13.5
2018-06-23T09:03:49.766Z,13.4
2018-06-23T09:05:09.653Z,13.4
2018-06-23T09:06:29.515Z,13.5
2018-06-23T09:07:49.357Z,13.3
2018-06-23T09:09:09.193Z,13.3
2018-06-23T09:10:29.019Z,13.8
2018-06-23T09:11:53.951Z,13.4
2018-06-23T09:13:13.841Z,14.2
2018-06-23T09:14:38.781Z,14.2
2018-06-23T09:15:58.638Z,14.1
2018-06-23T09:17:23.591Z,14.2
2018-06-23T09:18:46.006Z,14.2
2018-06-23T09:20:05.876Z,14.3
2018-06-23T09:21:30.802Z,14.7
2018-06-23T09:22:53.186Z,14.8
2018-06-23T09:24:13.040Z,14.8
2018-06-23T09:25:32.915Z,14.8
2018-06-23T09:26:52.874Z,14.7
2018-06-23T09:28:12.718Z,14.8
2018-06-23T09:29:32.584Z,14.7
2018-06-23T09:30:52.468Z,14.7
2018-06-23T09:32:14.824Z,14.7
2018-06-23T09:33:34.690Z,14.8
2018-06-23T09:34:54.511Z,14.8
2018-06-23T09:36:14.344Z,14.9
2018-06-23T09:37:34.175Z,14.8
2018-06-23T09:38:54.008Z,14.8
2018-06-23T09:40:18.899Z,14.8
2018-06-23T09:41:41.303Z,14.9
2018-06-23T09:43:08.757Z,14.8
2018-06-23T09:44:36.178Z,14.9
2018-06-23T09:46:01.189Z,14.8
2018-06-23T09:47:23.590Z,14.9
2018-06-23T09:48:48.505Z,14.9
2018-06-23T09:50:13.414Z,14.9
2018-06-23T09:51:33.270Z,14.9
2018-06-23T09:52:53.132Z,14.9
2018-06-23T09:54:13.002Z,15
2018-06-23T09:55:32.855Z,15
2018-06-23T09:57:00.278Z,14.9
2018-06-23T09:58:20.106Z,14.8
2018-06-23T09:59:39.930Z,14.8
2018-06-23T10:01:04.848Z,14.9
2018-06-23T10:02:27.237Z,14.8
2018-06-23T10:03:47.088Z,14.9
2018-06-23T10:05:11.987Z,15
2018-06-23T10:06:34.344Z,15.1
2018-06-23T10:07:54.179Z,15.1
2018-06-23T10:09:19.110Z,15.1
2018-06-23T10:10:38.941Z,15.2
2018-06-23T10:11:58.771Z,15.1
2018-06-23T10:13:23.662Z,15
2018-06-23T10:14:43.515Z,15.1
2018-06-23T10:16:08.455Z,15.1
2018-06-23T10:17:30.861Z,15.3
2018-06-23T10:18:50.687Z,15.4
2018-06-23T10:20:13.118Z,15.3
2018-06-23T10:21:38.031Z,15.4
2018-06-23T10:22:57.906Z,15.4
2018-06-23T10:24:17.760Z,15.3
2018-06-23T10:25:37.605Z,15.4
2018-06-23T10:26:57.456Z,15.4
2018-06-23T10:28:17.330Z,15.4
2018-06-23T10:29:37.207Z,15.4
2018-06-23T10:30:57.072Z,15.4
2018-06-23T10:32:16.910Z,15.5
2018-06-23T10:33:39.267Z,15.6
2018-06-23T10:35:01.676Z,15.5
2018-06-23T10:36:21.505Z,15.6
2018-06-23T10:37:41.334Z,15.6
2018-06-23T10:39:06.260Z,15.6
2018-06-23T10:40:33.741Z,15.6
2018-06-23T10:42:03.728Z,15.7
2018-06-23T10:43:26.099Z,15.8
2018-06-23T10:44:48.464Z,15.8
2018-06-23T10:46:08.323Z,15.8
2018-06-23T10:47:28.208Z,15.9
2018-06-23T10:48:48.089Z,15.7
2018-06-23T10:50:15.540Z,15.8
2018-06-23T10:51:43.015Z,15.9
2018-06-23T10:53:05.416Z,15.9
2018-06-23T10:54:25.245Z,15.8
2018-06-23T10:55:50.196Z,15.9
2018-06-23T10:57:10.072Z,15.9
2018-06-23T10:58:29.890Z,16
2018-06-23T10:59:52.248Z,15.9
2018-06-23T11:01:12.133Z,15.9
2018-06-23T11:02:37.011Z,15.9
2018-06-23T11:03:56.844Z,15.8
2018-06-23T11:05:21.735Z,15.8
2018-06-23T11:06:44.138Z,15.8
2018-06-23T11:08:11.558Z,15.8
2018-06-23T11:09:31.384Z,15.7
2018-06-23T11:10:53.743Z,15.8
2018-06-23T11:12:21.208Z,15.9
2018-06-23T11:13:41.060Z,15.8
2018-06-23T11:15:05.947Z,15.8
2018-06-23T11:16:30.880Z,15.8
2018-06-23T11:17:50.716Z,15.8
2018-06-23T11:19:13.102Z,15.7
2018-06-23T11:20:38.025Z,15.8
2018-06-23T11:21:57.890Z,15.8
2018-06-23T11:23:22.807Z,15.8
2018-06-23T11:24:42.661Z,16
2018-06-23T11:26:05.066Z,15.9
2018-06-23T11:27:24.890Z,15.9
2018-06-23T11:28:54.845Z,15.9
2018-06-23T11:30:17.199Z,15.9
2018-06-23T11:31:39.596Z,15.8
2018-06-23T11:33:01.943Z,15.8
2018-06-23T11:34:24.317Z,15.8
2018-06-23T11:35:46.724Z,15.8
2018-06-23T11:37:06.548Z,15.9
2018-06-23T11:38:31.433Z,16
2018-06-23T11:39:51.267Z,15.8
2018-06-23T11:41:31.337Z,15.8
2018-06-23T11:43:03.811Z,15.8
2018-06-23T11:44:31.217Z,15.8
2018-06-23T11:45:56.093Z,15.9
2018-06-23T11:47:20.979Z,15.9
2018-06-23T11:48:48.419Z,15.7
2018-06-23T11:50:08.252Z,15.9
2018-06-23T11:51:28.106Z,15.7
2018-06-23T11:52:50.453Z,15.7
2018-06-23T11:54:22.966Z,15.5
2018-06-23T11:55:42.821Z,15.5
2018-06-23T11:57:07.730Z,15.6
2018-06-23T11:58:30.137Z,15.6
2018-06-23T11:59:52.514Z,15.7
2018-06-23T12:01:14.870Z,15.7
2018-06-23T12:02:34.751Z,15.7
2018-06-23T12:03:54.657Z,15.7
2018-06-23T12:05:14.487Z,15.8
2018-06-23T12:06:41.931Z,15.7
2018-06-23T12:08:06.872Z,15.8
2018-06-23T12:09:26.703Z,15.8
2018-06-23T12:10:51.596Z,15.9
2018-06-23T12:12:13.947Z,15.8
2018-06-23T12:13:38.842Z,15.9
2018-06-23T12:14:58.667Z,16
2018-06-23T12:16:23.620Z,16.1
2018-06-23T12:17:48.501Z,16.1
2018-06-23T12:19:08.329Z,16.2
2018-06-23T12:20:28.152Z,16.2
2018-06-23T12:21:50.515Z,16.2
2018-06-23T12:23:15.406Z,16.3
2018-06-23T12:24:37.795Z,16.4
2018-06-23T12:26:00.149Z,16.5
2018-06-23T12:27:25.029Z,16.6
2018-06-23T12:28:52.476Z,16.5
2018-06-23T12:30:12.332Z,16.5
2018-06-23T12:31:34.682Z,16.5
2018-06-23T12:32:57.072Z,16.6
2018-06-23T12:34:16.957Z,16.5
2018-06-23T12:35:36.802Z,16.5
2018-06-23T12:36:56.687Z,16.5
2018-06-23T12:38:19.057Z,16.5
2018-06-23T12:39:41.434Z,16.6
2018-06-23T12:41:01.256Z,16.5
2018-06-23T12:42:26.151Z,16.5
2018-06-23T12:43:48.533Z,16.5
2018-06-23T12:45:15.980Z,16.3
2018-06-23T12:46:45.913Z,16.2
2018-06-23T12:48:05.743Z,16.3
2018-06-23T12:49:25.623Z,16.2
2018-06-23T12:50:45.446Z,16.1
2018-06-23T12:52:05.283Z,16.1
2018-06-23T12:53:30.169Z,16.1
2018-06-23T12:54:52.570Z,16.1
2018-06-23T12:56:14.948Z,16.1
2018-06-23T12:57:34.802Z,16
2018-06-23T12:58:54.648Z,16.2
2018-06-23T13:00:17.036Z,16.4
2018-06-23T13:01:36.914Z,16.4
2018-06-23T13:02:56.763Z,16.5
2018-06-23T13:04:16.665Z,16.5
2018-06-23T13:05:36.492Z,16.6
2018-06-23T13:07:01.434Z,16.6
2018-06-23T13:08:23.813Z,16.6
2018-06-23T13:09:46.170Z,16.5
2018-06-23T13:11:06.046Z,16.5
2018-06-23T13:12:28.411Z,16.5
2018-06-23T13:13:48.241Z,16.6
2018-06-23T13:15:08.118Z,16.6
2018-06-23T13:16:30.490Z,16.7
2018-06-23T13:17:55.416Z,16.7
2018-06-23T13:19:17.836Z,16.7
2018-06-23T13:20:37.705Z,16.8
2018-06-23T13:21:57.556Z,16.7
2018-06-23T13:23:17.412Z,16.8
2018-06-23T13:24:37.265Z,16.7
2018-06-23T13:25:59.625Z,16.8
2018-06-23T13:27:22.028Z,16.8
2018-06-23T13:28:44.432Z,16.9
2018-06-23T13:30:04.313Z,16.9
2018-06-23T13:31:26.672Z,16.8
2018-06-23T13:32:49.075Z,16.8
2018-06-23T13:34:08.938Z,16.8
2018-06-23T13:35:28.772Z,16.8
2018-06-23T13:36:48.639Z,16.6
2018-06-23T13:38:10.991Z,16.7
2018-06-23T13:39:35.928Z,16.6
2018-06-23T13:40:58.286Z,16.7
2018-06-23T13:42:35.877Z,16.8
2018-06-23T13:44:00.775Z,16.7
2018-06-23T13:45:25.665Z,16.5
2018-06-23T13:46:45.529Z,16.5
2018-06-23T13:48:15.522Z,16.5
2018-06-23T13:49:35.381Z,16.4
2018-06-23T13:50:55.208Z,16.4
2018-06-23T13:52:15.043Z,16.4
2018-06-23T13:53:34.872Z,16.3
2018-06-23T13:54:54.704Z,16.4
2018-06-23T13:56:14.559Z,16.5
2018-06-23T13:57:39.447Z,16.4
2018-06-23T13:58:59.281Z,16.3
2018-06-23T14:00:19.113Z,16.3
2018-06-23T14:01:41.511Z,16.3
2018-06-23T14:03:01.417Z,16.3
2018-06-23T14:04:21.266Z,16.4
2018-06-23T14:05:41.088Z,16.3
2018-06-23T14:07:03.444Z,16.3
2018-06-23T14:08:30.933Z,16.2
2018-06-23T14:09:50.786Z,16.3
2018-06-23T14:11:10.671Z,16.2
2018-06-23T14:12:30.544Z,16.2
2018-06-23T14:13:50.362Z,16.2
2018-06-23T14:15:10.190Z,16.3
2018-06-23T14:16:30.021Z,16.3
2018-06-23T14:17:57.466Z,16.3
2018-06-23T14:19:17.321Z,16.3
2018-06-23T14:20:37.178Z,16.1
2018-06-23T14:21:57.080Z,16.2
2018-06-23T14:23:19.488Z,16.2
2018-06-23T14:24:39.315Z,16.1
2018-06-23T14:25:59.135Z,16.1
2018-06-23T14:27:18.961Z,16.1
2018-06-23T14:28:38.786Z,16.1
2018-06-23T14:30:08.726Z,16.1
2018-06-23T14:31:28.710Z,16
2018-06-23T14:32:48.615Z,15.9
2018-06-23T14:34:18.558Z,15.9
2018-06-23T14:35:43.457Z,16
2018-06-23T14:37:05.813Z,16
2018-06-23T14:38:25.644Z,16
2018-06-23T14:39:45.477Z,15.9
2018-06-23T14:41:07.857Z,15.8
2018-06-23T14:42:32.741Z,15.8
2018-06-23T14:43:55.117Z,15.7
2018-06-23T14:45:20.067Z,15.9
2018-06-23T14:46:42.440Z,15.7
2018-06-23T14:48:02.289Z,15.7
2018-06-23T14:49:24.663Z,15.7
2018-06-23T14:50:44.524Z,15.8
2018-06-23T14:52:17.033Z,15.8
2018-06-23T14:53:41.991Z,15.7
2018-06-23T14:55:01.849Z,15.7
2018-06-23T14:56:21.796Z,15.6
2018-06-23T14:57:41.661Z,15.7
2018-06-23T14:59:04.038Z,15.7
2018-06-23T15:00:23.859Z,15.7
2018-06-23T15:01:43.681Z,15.8
2018-06-23T15:03:03.587Z,15.8
2018-06-23T15:04:23.409Z,16
2018-06-23T15:05:43.256Z,15.9
2018-06-23T15:07:03.079Z,16
2018-06-23T15:08:22.900Z,15.9
2018-06-23T15:09:45.302Z,15.9
2018-06-23T15:11:05.124Z,15.9
2018-06-23T15:12:32.590Z,15.9
2018-06-23T15:13:52.409Z,15.9
2018-06-23T15:15:14.765Z,15.9
2018-06-23T15:16:34.606Z,15.9
2018-06-23T15:18:02.060Z,15.9
2018-06-23T15:19:21.945Z,15.9
2018-06-23T15:20:41.799Z,15.9
2018-06-23T15:22:06.744Z,15.9
2018-06-23T15:23:31.664Z,15.9
2018-06-23T15:24:51.516Z,15.9
2018-06-23T15:26:11.371Z,15.8
2018-06-23T15:27:43.869Z,15.7
2018-06-23T15:29:03.705Z,15.7
2018-06-23T15:30:23.524Z,15.7
2018-06-23T15:31:43.404Z,15.7
2018-06-23T15:33:03.277Z,15.7
2018-06-23T15:34:30.723Z,15.7
2018-06-23T15:35:50.553Z,15.7
2018-06-23T15:37:15.491Z,15.7
2018-06-23T15:38:35.319Z,15.7
2018-06-23T15:39:55.199Z,15.8
2018-06-23T15:41:17.565Z,15.7
2018-06-23T15:42:42.466Z,15.7
2018-06-23T15:44:07.383Z,15.7
2018-06-23T15:45:27.219Z,15.8
2018-06-23T15:46:52.128Z,15.7
2018-06-23T15:48:14.541Z,15.7
2018-06-23T15:49:34.419Z,15.7
2018-06-23T15:50:54.247Z,15.7
2018-06-23T15:52:16.654Z,15.7
2018-06-23T15:53:39.014Z,15.7
2018-06-23T15:55:03.921Z,15.7
2018-06-23T15:56:26.353Z,15.6
2018-06-23T15:57:46.187Z,15.7
2018-06-23T15:59:11.082Z,15.8
2018-06-23T16:00:30.933Z,15.7
2018-06-23T16:01:50.757Z,15.8
2018-06-23T16:03:13.119Z,15.7
2018-06-23T16:04:35.556Z,15.7
2018-06-23T16:06:02.978Z,15.8
2018-06-23T16:07:22.831Z,15.8
2018-06-23T16:08:42.666Z,15.8
2018-06-23T16:10:02.508Z,15.8
2018-06-23T16:11:24.930Z,15.7
2018-06-23T16:12:44.797Z,15.8
2018-06-23T16:14:12.230Z,15.7
2018-06-23T16:15:42.177Z,15.7
2018-06-23T16:17:02.050Z,16
2018-06-23T16:18:21.909Z,15.9
2018-06-23T16:19:41.773Z,15.9
2018-06-23T16:21:04.147Z,15.8
2018-06-23T16:22:29.085Z,15.9
2018-06-23T16:23:48.917Z,15.8
2018-06-23T16:25:08.808Z,15.9
2018-06-23T16:26:28.640Z,15.9
2018-06-23T16:27:48.478Z,15.8
2018-06-23T16:29:10.876Z,15.7
2018-06-23T16:30:33.290Z,15.7
2018-06-23T16:31:55.648Z,15.7
2018-06-23T16:33:23.078Z,15.7
2018-06-23T16:34:43.132Z,15.7
2018-06-23T16:36:03.013Z,15.7
2018-06-23T16:37:22.848Z,15.7
2018-06-23T16:38:47.762Z,15.7
2018-06-23T16:40:10.116Z,15.7
2018-06-23T16:41:29.952Z,15.5
2018-06-23T16:42:49.796Z,15.5
2018-06-23T16:44:09.665Z,15.5
2018-06-23T16:45:29.496Z,15.6
2018-06-23T16:46:54.432Z,15.7
2018-06-23T16:48:14.258Z,15.7
2018-06-23T16:49:34.139Z,15.7
2018-06-23T16:50:56.540Z,15.7
2018-06-23T16:52:16.400Z,15.7
2018-06-23T16:53:36.259Z,15.6
2018-06-23T16:54:56.140Z,15.6
2018-06-23T16:56:18.525Z,15.6
2018-06-23T16:57:40.958Z,15.6
2018-06-23T16:59:00.793Z,15.6
2018-06-23T17:00:20.689Z,15.6
2018-06-23T17:01:40.542Z,15.6
2018-06-23T17:03:05.424Z,15.6
2018-06-23T17:04:30.309Z,15.6
2018-06-23T17:05:50.177Z,15.6
2018-06-23T17:07:10.007Z,15.6
2018-06-23T17:08:42.545Z,15.6
2018-06-23T17:10:02.374Z,15.7
2018-06-23T17:11:22.257Z,15.7
2018-06-23T17:12:49.690Z,15.6
2018-06-23T17:14:09.519Z,15.7
2018-06-23T17:15:29.400Z,15.6
2018-06-23T17:16:56.839Z,15.7
2018-06-23T17:18:21.809Z,15.7
2018-06-23T17:19:41.679Z,15.7
2018-06-23T17:21:04.033Z,15.7
2018-06-23T17:22:23.896Z,15.7
2018-06-23T17:23:43.730Z,15.7
2018-06-23T17:25:03.594Z,15.7
2018-06-23T17:26:23.444Z,15.6
2018-06-23T17:27:43.283Z,15.7
2018-06-23T17:29:03.142Z,15.7
2018-06-23T17:30:23.000Z,15.7
2018-06-23T17:31:50.416Z,15.7
2018-06-23T17:33:10.242Z,15.7
2018-06-23T17:34:32.609Z,15.7
2018-06-23T17:35:52.469Z,15.7
2018-06-23T17:37:12.295Z,15.7
2018-06-23T17:38:32.200Z,15.7
2018-06-23T17:39:52.055Z,15.7
2018-06-23T17:41:12.115Z,15.7
2018-06-23T17:42:37.139Z,15.8
2018-06-23T17:43:59.491Z,15.8
2018-06-23T17:45:24.375Z,15.8
2018-06-23T17:46:54.331Z,15.8
2018-06-23T17:48:14.163Z,15.8
2018-06-23T17:49:41.646Z,15.7
2018-06-23T17:51:01.506Z,15.8
2018-06-23T17:52:23.893Z,15.8
2018-06-23T17:53:56.388Z,15.8
2018-06-23T17:55:21.295Z,15.8
2018-06-23T17:56:41.157Z,15.7
2018-06-23T17:58:08.655Z,15.7
2018-06-23T17:59:28.514Z,15.7
2018-06-23T18:01:01.141Z,15.8
2018-06-23T18:02:43.819Z,15.7
2018-06-23T18:04:08.801Z,15.7
2018-06-23T18:05:28.670Z,15.7
2018-06-23T18:07:01.253Z,15.8
2018-06-23T18:08:58.566Z,15.8
2018-06-23T18:10:36.216Z,15.8
2018-06-23T18:11:56.145Z,15.8
2018-06-23T18:13:53.508Z,15.8
2018-06-23T18:15:41.254Z,15.8
2018-06-23T18:17:06.240Z,15.8
2018-06-23T18:18:33.722Z,15.8
2018-06-23T18:19:56.150Z,15.8
2018-06-23T18:21:53.486Z,15.8